Time;durP1;ratioP1;P1;durP2;ratioP2;P2;SDS_P1;SDS_P2;PMS_P1;PMS_P2;Temp;Humidity;BMP_temperature;BMP_pressure;BME280_temperature;BME280_humidity;BME280_pressure;Samples;Min_cycle;Max_cycle;Signal;HPM_P1;HPM_P2
2023/03/16 00:03:43;;;;;;;10.37;8.90;;;;;;;4.75;50.83;100064.22;10344322;28;20212;-88
2023/03/16 00:08:45;;;;;;;11.80;10.57;;;;;;;4.87;50.59;100059.59;10335252;28;20245;-88
2023/03/16 00:13:47;;;;;;;10.97;9.27;;;;;;;5.11;49.26;100069.78;10359598;28;20227;-88
2023/03/16 00:18:48;;;;;;;12.90;9.53;;;;;;;5.26;48.88;100078.13;10356813;28;20236;-89
2023/03/16 00:23:52;;;;;;;10.20;9.13;;;;;;;4.97;49.30;100087.97;10358406;28;20320;-89
2023/03/16 00:28:53;;;;;;;11.33;9.57;;;;;;;5.18;48.97;100042.69;10360480;28;20244;-87
2023/03/16 00:33:55;;;;;;;10.00;9.10;;;;;;;4.65;49.39;100065.19;10356840;28;20210;-88
2023/03/16 00:38:57;;;;;;;10.30;8.93;;;;;;;4.06;49.83;100078.31;10350934;28;20236;-88
2023/03/16 00:43:58;;;;;;;12.33;10.27;;;;;;;3.95;49.59;100081.91;10363670;28;20713;-87
2023/03/16 00:49:01;;;;;;;10.00;9.00;;;;;;;4.93;48.29;100037.84;10352369;28;20248;-88
2023/03/16 00:54:04;;;;;;;14.83;9.50;;;;;;;4.67;48.39;100050.00;10368673;28;20219;-88
2023/03/16 00:59:07;;;;;;;11.33;10.13;;;;;;;4.26;49.30;100051.88;10359253;28;20240;-91
2023/03/16 01:04:09;;;;;;;11.97;9.77;;;;;;;4.21;49.52;100049.63;10347788;28;20231;-87
2023/03/16 01:09:13;;;;;;;16.73;9.90;;;;;;;5.24;48.12;100003.16;10389052;28;20274;-90
2023/03/16 01:14:15;;;;;;;11.67;10.47;;;;;;;5.03;47.94;100061.72;10341906;28;20832;-88
2023/03/16 01:19:17;;;;;;;11.43;10.27;;;;;;;7.01;44.31;100070.28;10352484;28;20729;-88
2023/03/16 01:24:19;;;;;;;11.27;9.23;;;;;;;8.28;41.82;100082.97;10356796;28;20244;-87
2023/03/16 01:29:21;;;;;;;11.57;8.87;;;;;;;7.58;42.36;100141.75;10348409;28;20636;-88
2023/03/16 01:34:22;;;;;;;10.60;9.50;;;;;;;6.05;45.03;100163.78;10346206;28;20236;-89
2023/03/16 01:39:24;;;;;;;13.70;9.70;;;;;;;5.98;45.88;100113.03;10349652;28;20336;-87
2023/03/16 01:44:29;;;;;;;12.03;10.23;;;;;;;6.92;43.43;100133.22;10350116;28;20232;-87
2023/03/16 01:49:35;;;;;;;10.53;9.43;;;;;;;5.35;46.73;100134.81;10349952;28;20299;-89
2023/03/16 01:54:59;;;;;;;13.20;10.70;;;;;;;4.91;47.51;100135.28;10360902;28;20327;-87
2023/03/16 02:00:28;;;;;;;11.90;10.33;;;;;;;4.32;48.62;100138.78;10350499;28;20240;-91
2023/03/16 02:05:41;;;;;;;14.37;11.33;;;;;;;4.77;48.97;100080.81;10362936;28;20744;-88
2023/03/16 02:10:44;;;;;;;13.07;11.00;;;;;;;4.23;48.94;100121.84;10347283;28;20245;-86
2023/03/16 02:15:45;;;;;;;14.87;11.80;;;;;;;4.75;48.43;100089.91;10348037;28;20234;-87
2023/03/16 02:21:21;;;;;;;12.67;11.23;;;;;;;4.58;47.81;100092.25;10354633;28;20784;-87
2023/03/16 02:26:44;;;;;;;13.40;11.83;;;;;;;3.55;50.01;100117.09;10343849;28;20223;-87
2023/03/16 02:31:46;;;;;;;13.93;12.33;;;;;;;4.00;49.45;100092.06;10344786;28;20238;-88
2023/03/16 02:36:51;;;;;;;13.67;12.27;;;;;;;5.25;47.68;100025.19;10358752;28;20674;-88
2023/03/16 02:41:52;;;;;;;13.67;12.27;;;;;;;4.37;48.88;100055.28;10350600;28;20842;-86
2023/03/16 02:46:58;;;;;;;13.43;11.73;;;;;;;5.83;46.11;100046.28;10344911;28;20242;-88
2023/03/16 02:52:00;;;;;;;14.43;11.80;;;;;;;4.33;48.45;100096.25;10342279;28;20231;-88
2023/03/16 02:57:02;;;;;;;13.70;12.10;;;;;;;4.57;48.79;100026.13;10341897;28;20739;-89
2023/03/16 03:02:04;;;;;;;15.57;12.90;;;;;;;4.28;49.19;100045.44;10348109;28;20232;-90
2023/03/16 03:07:06;;;;;;;16.57;13.83;;;;;;;5.05;47.16;100057.09;10340272;28;20238;-87
2023/03/16 03:12:09;;;;;;;17.20;13.23;;;;;;;6.97;44.92;99981.09;10356272;28;20336;-89
2023/03/16 03:17:12;;;;;;;15.20;12.77;;;;;;;6.79;44.42;100029.03;10340457;28;20212;-89
2023/03/16 03:22:17;;;;;;;14.93;12.97;;;;;;;5.63;45.75;100100.44;10348857;28;20239;-87
2023/03/16 03:27:21;;;;;;;15.10;12.13;;;;;;;4.52;46.32;100106.03;10345603;28;20236;-88
2023/03/16 03:32:23;;;;;;;16.07;12.33;;;;;;;4.88;46.80;100113.47;10356110;28;20702;-87
2023/03/16 03:37:25;;;;;;;16.20;13.00;;;;;;;5.28;46.31;100099.22;10344727;28;20209;-88
2023/03/16 03:42:26;;;;;;;17.13;13.70;;;;;;;4.25;48.85;100084.63;10362230;28;20570;-87
2023/03/16 03:47:28;;;;;;;16.73;14.30;;;;;;;4.15;48.93;100082.81;10351684;28;20259;-89
2023/03/16 03:52:30;;;;;;;16.70;14.90;;;;;;;3.87;48.77;100088.81;10352321;28;20231;-87
2023/03/16 03:57:31;;;;;;;19.00;16.50;;;;;;;3.38;49.06;100096.50;10368451;28;20694;-90
2023/03/16 04:02:33;;;;;;;22.53;17.33;;;;;;;3.93;48.44;100085.63;10372950;28;20266;-87
2023/03/16 04:07:35;;;;;;;19.73;15.87;;;;;;;3.26;49.50;100086.00;10363492;28;20231;-91
2023/03/16 04:12:37;;;;;;;17.97;15.07;;;;;;;2.70;51.26;100084.44;10379925;28;20231;-87
2023/03/16 04:17:39;;;;;;;25.63;18.40;;;;;;;2.73;51.21;100068.31;10354737;28;20588;-90
2023/03/16 04:22:41;;;;;;;39.47;19.30;;;;;;;2.50;51.72;100056.13;10361896;28;20241;-92
2023/03/16 04:27:45;;;;;;;29.70;19.07;;;;;;;2.08;52.66;100063.91;10354678;28;20609;-91
2023/03/16 04:32:47;;;;;;;22.77;17.03;;;;;;;2.69;51.75;100021.13;10358091;28;20247;-89
2023/03/16 04:37:49;;;;;;;20.43;17.47;;;;;;;2.46;52.39;100013.28;10353862;28;20295;-89
2023/03/16 04:42:51;;;;;;;21.50;17.27;;;;;;;2.87;50.99;100011.69;10350238;28;20246;-89
2023/03/16 04:47:53;;;;;;;20.80;17.73;;;;;;;2.96;51.18;100003.97;10346840;28;20225;-90
2023/03/16 04:52:54;;;;;;;22.23;18.43;;;;;;;1.77;53.29;100053.16;10355871;28;20245;-89
2023/03/16 04:57:57;;;;;;;24.93;19.43;;;;;;;2.27;52.44;100008.69;10357276;28;20667;-91
2023/03/16 05:05:33;;;;;;;24.97;19.50;;;;;;;-0.65;59.56;100021.63;10483125;27;20355;-66
2023/03/16 05:10:35;;;;;;;23.47;19.47;;;;;;;-0.57;59.35;100010.59;10433985;28;20233;-66
2023/03/16 05:15:37;;;;;;;24.57;20.30;;;;;;;-0.02;58.29;99950.63;10427291;28;20602;-65
2023/03/16 05:20:39;;;;;;;27.73;20.57;;;;;;;-0.06;57.90;100000.00;10441114;28;20739;-66
2023/03/16 05:25:41;;;;;;;24.27;20.33;;;;;;;1.06;56.01;99919.69;10468246;28;20236;-65
2023/03/16 05:30:44;;;;;;;29.33;21.03;;;;;;;0.77;55.22;100013.31;10467284;28;20232;-65
2023/03/16 05:35:46;;;;;;;25.17;21.70;;;;;;;1.00;55.34;99970.25;10469717;28;20309;-65
2023/03/16 05:40:51;;;;;;;28.97;22.43;;;;;;;0.96;55.17;99979.34;10471540;28;20231;-66
2023/03/16 05:45:54;;;;;;;28.27;20.97;;;;;;;1.15;54.62;99972.66;10470617;28;20319;-65
2023/03/16 05:50:56;;;;;;;28.07;23.20;;;;;;;1.65;54.59;99907.22;10426923;22;20248;-35
2023/03/16 05:55:58;;;;;;;33.97;25.00;;;;;;;1.51;53.65;99973.44;10383373;28;20245;-35
2023/03/16 06:01:00;;;;;;;26.37;21.37;;;;;;;1.91;53.13;99935.94;10380240;28;20248;-36
2023/03/16 06:06:03;;;;;;;24.07;18.83;;;;;;;0.84;54.68;100057.50;10392924;22;20262;-35
2023/03/16 06:11:04;;;;;;;24.03;18.80;;;;;;;1.60;53.60;99983.25;10335640;28;20227;-33
2023/03/16 06:16:07;;;;;;;25.67;17.83;;;;;;;2.68;51.58;99953.38;10317726;28;20230;-32
2023/03/16 06:21:08;;;;;;;23.17;19.07;;;;;;;1.08;54.27;100097.97;10398583;28;20279;-32
2023/03/16 06:26:10;;;;;;;22.83;18.87;;;;;;;1.69;54.29;99997.50;10395285;28;20616;-35
2023/03/16 06:31:12;;;;;;;30.47;19.87;;;;;;;2.01;53.56;99972.97;10393505;28;20214;-36
2023/03/16 06:36:14;;;;;;;26.50;21.43;;;;;;;1.43;54.36;100030.22;10389456;28;20802;-35
2023/03/16 06:41:16;;;;;;;26.07;19.83;;;;;;;0.81;55.88;100080.63;10380534;28;20221;-35
2023/03/16 06:46:17;;;;;;;26.57;22.03;;;;;;;1.47;55.23;99987.81;10392517;28;20261;-34
2023/03/16 06:51:19;;;;;;;29.03;22.27;;;;;;;1.96;54.23;99968.06;10384816;28;20668;-35
2023/03/16 06:56:21;;;;;;;27.10;22.77;;;;;;;1.57;55.14;100000.16;10386991;28;20442;-34
2023/03/16 07:01:23;;;;;;;24.20;20.27;;;;;;;1.77;53.86;100018.84;10382104;28;20223;-35
2023/03/16 07:06:25;;;;;;;25.40;20.70;;;;;;;2.12;53.75;100031.03;10392113;28;20488;-35
2023/03/16 07:11:26;;;;;;;30.50;23.10;;;;;;;1.76;54.64;100060.22;10387236;28;20224;-35
2023/03/16 07:16:28;;;;;;;26.97;20.77;;;;;;;2.70;53.06;99991.94;10389487;28;20234;-34
2023/03/16 07:21:37;;;;;;;28.13;21.17;;;;;;;2.36;53.84;100017.66;10392121;28;20240;-34
2023/03/16 07:26:40;;;;;;;27.27;22.23;;;;;;;2.87;53.24;100014.31;10383865;28;20236;-35
2023/03/16 07:31:42;;;;;;;29.60;21.60;;;;;;;3.28;51.85;100060.25;10381286;28;20278;-35
2023/03/16 07:36:43;;;;;;;28.23;22.27;;;;;;;4.31;50.30;100028.47;10389994;28;20255;-34
2023/03/16 07:41:45;;;;;;;28.47;22.73;;;;;;;4.03;50.90;100090.00;10394323;28;20260;-34
2023/03/16 07:46:47;;;;;;;28.10;21.93;;;;;;;6.14;47.90;100034.50;10392543;28;20331;-35
2023/03/16 07:51:48;;;;;;;23.10;19.30;;;;;;;5.56;49.46;100083.38;10395067;28;20251;-34
2023/03/16 07:56:50;;;;;;;24.27;20.47;;;;;;;3.67;51.93;100193.78;10389055;28;20233;-34
2023/03/16 08:01:52;;;;;;;24.17;19.83;;;;;;;4.47;50.83;100136.59;10386265;28;20316;-34
2023/03/16 08:06:58;;;;;;;25.80;20.27;;;;;;;5.06;50.99;100087.09;10387443;28;20238;-35
2023/03/16 08:12:02;;;;;;;23.63;19.07;;;;;;;4.30;51.91;100138.03;10387600;28;20253;-34
2023/03/16 08:17:08;;;;;;;22.90;19.03;;;;;;;4.88;51.76;100095.78;10387060;28;20235;-35
2023/03/16 08:22:11;;;;;;;23.33;19.37;;;;;;;4.29;52.59;100142.50;10384545;28;20232;-35
2023/03/16 08:27:14;;;;;;;22.83;18.90;;;;;;;3.87;54.00;100163.81;10386548;28;20240;-34
2023/03/16 08:32:17;;;;;;;18.17;15.87;;;;;;;5.78;49.66;100103.47;10382847;28;20316;-35
2023/03/16 08:37:18;;;;;;;18.13;16.23;;;;;;;5.38;50.63;100144.31;10386146;28;20263;-35
2023/03/16 08:42:21;;;;;;;17.57;14.93;;;;;;;4.56;50.68;100208.19;10383283;28;20232;-36
2023/03/16 08:47:23;;;;;;;18.17;15.33;;;;;;;5.87;49.49;100135.31;10391169;28;20601;-35
2023/03/16 08:52:25;;;;;;;16.93;14.27;;;;;;;6.38;48.48;100141.09;10382514;28;20236;-35
2023/03/16 08:57:26;;;;;;;18.23;13.43;;;;;;;8.34;46.00;100108.19;10377913;28;20235;-35
2023/03/16 09:02:28;;;;;;;16.50;13.63;;;;;;;8.05;46.57;100113.88;10387207;28;20241;-35
2023/03/16 09:07:33;;;;;;;14.13;12.20;;;;;;;6.69;46.84;100186.00;10379608;28;20658;-36
2023/03/16 09:12:37;;;;;;;14.13;11.47;;;;;;;7.97;45.76;100157.34;10387724;28;20225;-35
2023/03/16 09:17:40;;;;;;;14.83;11.93;;;;;;;8.11;46.40;100139.91;10375569;28;20332;-36
2023/03/16 09:22:42;;;;;;;13.33;11.40;;;;;;;7.58;46.88;100194.16;10390253;28;20243;-35
2023/03/16 09:27:44;;;;;;;10.00;9.00;;;;;;;8.78;45.98;100120.47;10388039;28;20240;-35
2023/03/16 09:32:47;;;;;;;9.27;8.33;;;;;;;9.44;43.82;100124.00;10385561;28;20387;-36
2023/03/16 09:37:50;;;;;;;10.80;8.30;;;;;;;8.33;45.09;100141.16;10385518;28;20718;-35
2023/03/16 09:43:24;;;;;;;7.73;6.57;;;;;;;9.96;43.51;100106.72;10385855;28;20248;-35
2023/03/16 09:48:31;;;;;;;8.53;6.90;;;;;;;7.85;45.82;100190.59;10379352;28;20604;-35
2023/03/16 09:53:38;;;;;;;10.27;7.77;;;;;;;9.67;43.50;100097.44;10394203;28;20225;-34
2023/03/16 09:58:39;;;;;;;8.30;6.67;;;;;;;9.58;42.97;100111.78;10393421;28;20243;-36
2023/03/16 10:04:00;;;;;;;12.07;8.97;;;;;;;11.22;41.27;100078.88;10389904;28;20234;-35
2023/03/16 10:09:27;;;;;;;9.87;6.77;;;;;;;10.86;41.71;100073.31;10389663;28;20227;-35
2023/03/16 10:14:47;;;;;;;6.57;5.53;;;;;;;11.56;40.45;100077.53;10390973;28;20581;-35
2023/03/16 10:19:58;;;;;;;8.43;4.97;;;;;;;10.54;41.62;100063.66;10387106;28;20670;-35
2023/03/16 10:25:05;;;;;;;9.17;6.17;;;;;;;8.46;43.68;100144.22;10388598;28;20233;-34
2023/03/16 10:30:18;;;;;;;6.07;5.47;;;;;;;9.51;43.27;100074.25;10385149;28;20237;-35
2023/03/16 10:35:54;;;;;;;5.37;4.87;;;;;;;9.54;43.47;100081.09;10389733;28;20690;-34
2023/03/16 10:40:59;;;;;;;4.97;4.27;;;;;;;11.84;40.13;100042.03;10396582;28;20241;-35
2023/03/16 10:46:01;;;;;;;4.17;3.67;;;;;;;11.02;40.16;100019.63;10388647;28;20267;-35
2023/03/16 10:51:10;;;;;;;4.80;4.20;;;;;;;11.78;39.66;100032.09;10387410;28;20235;-35
2023/03/16 10:56:21;;;;;;;4.40;3.90;;;;;;;11.81;39.10;100040.59;10391041;28;20244;-35
2023/03/16 11:06:33;;;;;;;5.67;4.30;;;;;;;8.66;44.79;100040.72;10587156;27;20313;-66
2023/03/16 11:11:36;;;;;;;4.47;3.90;;;;;;;8.03;43.41;100083.91;10461169;28;20232;-66
2023/03/16 11:16:46;;;;;;;5.53;3.67;;;;;;;10.28;42.08;99979.22;10459359;28;20239;-64
2023/03/16 11:21:58;;;;;;;4.37;3.90;;;;;;;9.69;41.63;100017.91;10456186;28;20281;-66
2023/03/16 11:27:07;;;;;;;4.10;3.40;;;;;;;10.44;39.81;99951.50;10459075;28;20237;-66
2023/03/16 11:32:19;;;;;;;4.00;3.37;;;;;;;11.07;39.00;99960.19;10466227;28;20714;-64
2023/03/16 11:37:24;;;;;;;4.20;3.80;;;;;;;10.03;41.03;100003.41;10456016;28;20238;-66
2023/03/16 11:42:29;;;;;;;4.20;3.73;;;;;;;10.79;41.34;99955.41;10460809;28;20242;-67
2023/03/16 11:47:52;;;;;;;5.53;3.47;;;;;;;11.20;38.26;99925.53;10453472;28;20220;-68
2023/03/16 11:53:06;;;;;;;2.90;2.70;;;;;;;11.45;38.95;99935.94;10436884;22;20228;-37
2023/03/16 11:58:20;;;;;;;3.53;3.23;;;;;;;10.08;38.70;100017.09;10389721;28;20239;-37
2023/03/16 12:03:52;;;;;;;3.13;2.80;;;;;;;10.43;39.00;100009.53;10381762;28;20412;-37
2023/03/16 12:09:03;;;;;;;2.80;2.60;;;;;;;12.46;36.30;99927.16;10379875;28;20225;-38
2023/03/16 12:14:29;;;;;;;4.30;3.30;;;;;;;11.77;36.42;99921.31;10375845;28;20221;-34
2023/03/16 12:19:40;;;;;;;2.87;2.67;;;;;;;10.00;37.79;100011.78;10355130;28;20721;-38
2023/03/16 12:24:45;;;;;;;3.60;2.50;;;;;;;10.15;39.13;99969.91;10355743;28;20604;-37
2023/03/16 12:30:02;;;;;;;3.47;2.10;;;;;;;12.36;36.76;99877.31;10355254;28;20324;-34
2023/03/16 12:35:04;;;;;;;2.07;1.80;;;;;;;11.94;35.29;99880.88;10346035;28;20233;-35
2023/03/16 12:40:14;;;;;;;2.70;2.50;;;;;;;12.63;37.05;99866.00;10356826;28;20229;-37
2023/03/16 12:45:35;;;;;;;3.20;2.57;;;;;;;11.07;37.10;99920.00;10351204;28;20240;-37
2023/03/16 12:50:49;;;;;;;2.40;2.20;;;;;;;12.49;37.09;99822.97;10351295;28;20249;-37
2023/03/16 12:55:50;;;;;;;3.20;1.87;;;;;;;11.85;36.60;99874.81;10350719;28;20277;-36
2023/03/16 13:00:58;;;;;;;1.90;1.77;;;;;;;12.25;36.11;99839.44;10352785;28;20233;-35
2023/03/16 13:06:02;;;;;;;3.17;2.40;;;;;;;12.37;35.38;99821.81;10352127;28;20230;-36
2023/03/16 13:11:10;;;;;;;3.13;2.53;;;;;;;13.46;35.68;99820.34;10354091;28;20238;-37
2023/03/16 13:16:23;;;;;;;3.20;2.73;;;;;;;12.28;36.82;99842.59;10351810;28;20229;-37
2023/03/16 13:21:37;;;;;;;2.67;2.17;;;;;;;14.01;36.17;99783.38;10347050;28;20227;-37
2023/03/16 13:26:47;;;;;;;3.30;2.13;;;;;;;14.11;36.18;99769.56;10350073;28;20737;-36
2023/03/16 13:31:51;;;;;;;2.70;2.50;;;;;;;11.60;37.16;99842.13;10350171;28;20266;-38
2023/03/16 13:36:56;;;;;;;2.40;2.20;;;;;;;13.24;35.42;99747.06;10351382;28;20245;-36
2023/03/16 13:42:17;;;;;;;3.03;2.70;;;;;;;12.96;35.71;99757.94;10343152;28;20234;-36
2023/03/16 13:47:20;;;;;;;2.20;2.10;;;;;;;11.81;34.91;99775.16;10348326;28;20222;-36
2023/03/16 13:52:30;;;;;;;3.53;2.50;;;;;;;13.98;34.56;99692.34;10342795;28;20234;-37
2023/03/16 13:57:37;;;;;;;2.23;2.03;;;;;;;13.43;35.19;99680.97;10349028;28;20754;-37
2023/03/16 14:02:42;;;;;;;2.33;2.13;;;;;;;12.83;35.89;99696.97;10348588;28;20229;-37
2023/03/16 14:07:52;;;;;;;2.60;1.97;;;;;;;13.68;34.93;99673.13;10337639;28;20238;-36
2023/03/16 14:12:57;;;;;;;2.30;2.10;;;;;;;13.90;35.11;99646.00;10346724;28;20255;-37
2023/03/16 14:18:20;;;;;;;3.20;2.13;;;;;;;14.59;33.50;99648.09;10346692;28;20252;-36
2023/03/16 14:23:32;;;;;;;2.30;1.90;;;;;;;15.06;32.92;99593.94;10341858;28;20244;-37
2023/03/16 14:28:34;;;;;;;3.27;2.50;;;;;;;13.96;34.36;99613.72;10345504;28;20239;-36
2023/03/16 14:33:40;;;;;;;2.90;2.50;;;;;;;13.79;34.24;99599.06;10344342;28;20660;-37
2023/03/16 14:38:53;;;;;;;2.57;1.70;;;;;;;13.81;34.75;99588.91;10347431;28;20785;-37
2023/03/16 14:43:58;;;;;;;2.57;2.07;;;;;;;14.25;35.55;99581.97;10348852;28;20229;-37
2023/03/16 14:49:15;;;;;;;2.87;2.57;;;;;;;14.84;33.35;99536.09;10348613;28;20241;-37
2023/03/16 14:54:21;;;;;;;3.17;2.10;;;;;;;15.18;32.97;99572.50;10340836;28;20233;-36
2023/03/16 14:59:23;;;;;;;2.00;1.70;;;;;;;13.72;35.28;99587.50;10346380;28;20272;-36
2023/03/16 15:04:30;;;;;;;2.30;2.00;;;;;;;14.77;34.55;99539.63;10346256;28;20237;-37
2023/03/16 15:09:42;;;;;;;2.13;2.03;;;;;;;14.89;33.94;99520.91;10352194;28;20777;-36
2023/03/16 15:20:05;;;;;;;2.83;2.00;;;;;;;14.95;34.25;99508.47;10349703;28;20244;-37
2023/03/16 15:25:16;;;;;;;4.33;2.10;;;;;;;14.65;35.23;99548.63;10338878;28;20676;-36
2023/03/16 15:30:22;;;;;;;2.00;1.90;;;;;;;15.05;35.06;99506.09;10347696;28;20237;-36
2023/03/16 15:35:24;;;;;;;3.63;2.00;;;;;;;14.67;34.13;99509.66;10339231;28;20803;-37
2023/03/16 15:40:51;;;;;;;1.63;1.53;;;;;;;14.54;34.42;99497.13;10328021;28;20202;-38
2023/03/16 15:46:17;;;;;;;4.50;2.03;;;;;;;14.79;33.86;99509.78;10322731;28;20229;-38
2023/03/16 21:13:30;;;;;;;6.73;4.90;;;;;;;8.74;44.21;99380.09;10274952;28;20222;-36
2023/03/16 21:18:32;;;;;;;7.70;4.77;;;;;;;9.82;43.22;99351.91;10330145;28;20322;-38
2023/03/16 21:23:34;;;;;;;6.20;4.50;;;;;;;9.68;43.15;99372.31;10336033;28;20333;-37
2023/03/16 21:28:36;;;;;;;6.63;5.10;;;;;;;9.81;42.81;99357.44;10345406;28;20233;-37
2023/03/16 21:33:40;;;;;;;6.80;5.13;;;;;;;9.94;43.29;99323.69;10351662;28;20229;-37
2023/03/16 21:38:43;;;;;;;5.43;4.47;;;;;;;10.72;41.67;99324.69;10351044;28;20559;-37
2023/03/16 21:43:45;;;;;;;6.73;5.47;;;;;;;11.35;40.81;99325.44;10346433;28;20240;-37
2023/03/16 21:48:50;;;;;;;7.20;5.13;;;;;;;10.26;41.80;99412.41;10345603;28;20416;-37
2023/03/16 21:53:52;;;;;;;6.53;4.97;;;;;;;10.82;41.58;99360.00;10352313;28;20478;-37
2023/03/16 21:58:54;;;;;;;8.10;5.57;;;;;;;9.99;41.53;99391.78;10354153;28;20248;-37
2023/03/16 22:04:01;;;;;;;7.47;5.43;;;;;;;11.69;39.72;99379.16;10349048;28;20251;-37
2023/03/16 22:09:03;;;;;;;5.50;4.90;;;;;;;11.58;39.22;99388.59;10341151;28;20618;-37
2023/03/16 22:14:08;;;;;;;7.47;5.23;;;;;;;10.36;41.46;99421.97;10346926;28;20583;-37
2023/03/16 22:19:14;;;;;;;5.87;4.70;;;;;;;11.13;40.16;99401.56;10349672;28;20210;-38
2023/03/16 22:24:19;;;;;;;6.10;5.20;;;;;;;10.45;40.93;99421.63;10352409;28;20701;-37
2023/03/16 22:29:30;;;;;;;6.77;5.40;;;;;;;10.52;40.76;99401.13;10343657;28;20210;-37
2023/03/16 22:34:41;;;;;;;7.53;5.90;;;;;;;9.58;42.64;99395.81;10348524;28;20683;-37
2023/03/16 22:39:43;;;;;;;8.10;5.67;;;;;;;10.27;42.00;99370.44;10352614;28;20246;-37
2023/03/16 22:44:45;;;;;;;6.13;5.30;;;;;;;9.46;42.50;99400.00;10352701;28;20242;-37
2023/03/16 22:49:47;;;;;;;7.33;5.60;;;;;;;9.33;42.61;99400.66;10344523;28;20730;-37
2023/03/16 22:54:49;;;;;;;7.13;5.60;;;;;;;9.12;43.05;99401.41;10351494;28;20644;-37
2023/03/16 22:59:51;;;;;;;6.13;5.00;;;;;;;9.15;43.17;99396.53;10353544;28;20229;-37
2023/03/16 23:04:54;;;;;;;8.93;5.80;;;;;;;8.71;44.23;99375.94;10348617;28;20726;-37
2023/03/16 23:09:56;;;;;;;6.10;5.23;;;;;;;8.27;44.88;99350.03;10348468;28;20583;-37
2023/03/16 23:14:58;;;;;;;7.13;6.00;;;;;;;8.62;44.52;99347.69;10350376;28;20236;-37
2023/03/16 23:19:59;;;;;;;7.10;4.90;;;;;;;8.84;43.60;99372.63;10345152;28;20368;-37
2023/03/16 23:25:01;;;;;;;8.67;5.60;;;;;;;9.00;43.33;99353.00;10344301;28;20240;-37
2023/03/16 23:30:15;;;;;;;6.57;5.80;;;;;;;11.96;39.37;99256.72;10353007;28;20245;-37
2023/03/16 23:35:23;;;;;;;6.60;5.07;;;;;;;9.54;41.61;99269.00;10346713;28;20236;-37
2023/03/16 23:40:27;;;;;;;7.17;4.90;;;;;;;8.45;43.40;99339.88;10340166;28;20238;-37
2023/03/16 23:45:43;;;;;;;8.40;5.20;;;;;;;8.58;44.17;99365.09;10346988;28;20279;-37
2023/03/16 23:50:50;;;;;;;7.20;6.50;;;;;;;7.57;45.24;99325.19;10345724;28;20233;-37
2023/03/16 23:55:52;;;;;;;8.80;5.77;;;;;;;8.56;44.22;99353.78;10348071;28;20241;-37
